Time;durP1;ratioP1;P1;durP2;ratioP2;P2;SDS_P1;SDS_P2;PMS_P1;PMS_P2;Temp;Humidity;BMP_temperature;BMP_pressure;BME280_temperature;BME280_humidity;BME280_pressure;Samples;Min_cycle;Max_cycle;Signal;HPM_P1;HPM_P2
2022/12/12 00:01:26;;;;;;;;;;;;;;;;;;5006989;28;20052;-51
2022/12/12 00:03:52;;;;;;;;;;;;;;;;;;5005839;28;20012;-49
2022/12/12 00:06:18;;;;;;;;;;;;;;;;;;5006927;28;20405;-48
2022/12/12 00:08:44;;;;;;;;;;;;;;;;;;5006213;28;19932;-50
2022/12/12 00:11:11;;;;;;;;;;;;;;;;;;5006613;28;19929;-49
2022/12/12 00:13:37;;;;;;;;;;;;;;;;;;5006627;28;19931;-53
2022/12/12 00:16:03;;;;;;;;;;;;;;;;;;5006778;28;19925;-50
2022/12/12 00:18:29;;;;;;;;;;;;;;;;;;5005319;28;19932;-55
2022/12/12 00:20:55;;;;;;;;;;;;;;;;;;5006258;28;19925;-48
2022/12/12 00:23:21;;;;;;;;;;;;;;;;;;5006402;28;19986;-57
2022/12/12 00:25:47;;;;;;;;;;;;;;;;;;5006487;28;20422;-50
2022/12/12 00:28:13;;;;;;;;;;;;;;;;;;5006497;28;19971;-46
2022/12/12 00:30:39;;;;;;;;;;;;;;;;;;5005638;28;19926;-48
2022/12/12 00:33:05;;;;;;;;;;;;;;;;;;5005488;28;20349;-49
2022/12/12 00:35:31;;;;;;;;;;;;;;;;;;5005943;28;19925;-52
2022/12/12 00:37:57;;;;;;;;;;;;;;;;;;5005983;28;19932;-46
2022/12/12 00:40:23;;;;;;;;;;;;;;;;;;5006085;28;19944;-54
2022/12/12 00:42:49;;;;;;;;;;;;;;;;;;5006038;28;20283;-47
2022/12/12 00:45:15;;;;;;;;;;;;;;;;;;5006151;28;19926;-50
2022/12/12 00:47:41;;;;;;;;;;;;;;;;;;5004644;28;19932;-51
2022/12/12 00:50:07;;;;;;;;;;;;;;;;;;5006287;28;19934;-52
2022/12/12 00:52:33;;;;;;;;;;;;;;;;;;5005964;28;19945;-47
2022/12/12 00:54:59;;;;;;;;;;;;;;;;;;5005406;28;19964;-49
2022/12/12 00:57:25;;;;;;;;;;;;;;;;;;5005850;28;19996;-51
2022/12/12 00:59:51;;;;;;;;;;;;;;;;;;5002638;28;19957;-49
2022/12/12 01:02:17;;;;;;;;;;;;;;;;;;5005248;28;19937;-54
2022/12/12 01:04:43;;;;;;;;;;;;;;;;;;5005528;28;19929;-47
2022/12/12 01:07:09;;;;;;;;;;;;;;;;;;5005510;28;19925;-51
2022/12/12 01:09:35;;;;;;;;;;;;;;;;;;5005231;28;20029;-47
2022/12/12 01:12:01;;;;;;;;;;;;;;;;;;5005621;28;19925;-52
2022/12/12 01:14:27;;;;;;;;;;;;;;;;;;5005650;28;19926;-48
2022/12/12 01:16:53;;;;;;;;;;;;;;;;;;5005259;28;19933;-51
2022/12/12 01:19:19;;;;;;;;;;;;;;;;;;5005538;28;20004;-48
2022/12/12 01:21:45;;;;;;;;;;;;;;;;;;5005333;28;19929;-49
2022/12/12 01:24:11;;;;;;;;;;;;;;;;;;5006040;28;19929;-52
2022/12/12 01:26:37;;;;;;;;;;;;;;;;;;5005433;28;19925;-51
2022/12/12 01:29:03;;;;;;;;;;;;;;;;;;5005757;28;19932;-47
2022/12/12 01:31:29;;;;;;;;;;;;;;;;;;5005231;28;19934;-50
2022/12/12 01:33:55;;;;;;;;;;;;;;;;;;5004606;28;20012;-56
2022/12/12 01:36:21;;;;;;;;;;;;;;;;;;5005941;28;20338;-50
2022/12/12 01:38:47;;;;;;;;;;;;;;;;;;5005243;28;19932;-52
2022/12/12 01:41:13;;;;;;;;;;;;;;;;;;5004861;28;19934;-47
2022/12/12 01:43:39;;;;;;;;;;;;;;;;;;5004354;28;20302;-53
2022/12/12 01:46:07;;;;;;;;;;;;;;;;;;5005709;28;19926;-51
2022/12/12 01:48:33;;;;;;;;;;;;;;;;;;5004489;28;19932;-51
2022/12/12 01:50:59;;;;;;;;;;;;;;;;;;5004852;28;20375;-49
2022/12/12 01:53:25;;;;;;;;;;;;;;;;;;5005215;28;19979;-47
2022/12/12 01:55:51;;;;;;;;;;;;;;;;;;5004920;28;19926;-47
2022/12/12 01:58:17;;;;;;;;;;;;;;;;;;5005410;28;19929;-53
2022/12/12 02:00:43;;;;;;;;;;;;;;;;;;5008812;28;20007;-50
2022/12/12 02:03:09;;;;;;;;;;;;;;;;;;5008558;28;20548;-51
2022/12/12 02:05:35;;;;;;;;;;;;;;;;;;5129573;23;19929;-56
2022/12/12 02:08:01;;;;;;;;;;;;;;;;;;5069693;28;19967;-55
2022/12/12 02:10:27;;;;;;;;;;;;;;;;;;5069419;28;20358;-55
2022/12/12 02:12:53;;;;;;;;;;;;;;;;;;5069046;28;20011;-55
2022/12/12 02:15:19;;;;;;;;;;;;;;;;;;5060688;28;20077;-56
2022/12/12 02:17:45;;;;;;;;;;;;;;;;;;5048203;28;19925;-56
2022/12/12 02:20:11;;;;;;;;;;;;;;;;;;5048928;28;19925;-57
2022/12/12 02:22:37;;;;;;;;;;;;;;;;;;5048686;28;19925;-55
2022/12/12 02:25:03;;;;;;;;;;;;;;;;;;5061129;28;19925;-56
2022/12/12 02:27:29;;;;;;;;;;;;;;;;;;5067511;28;19930;-56
2022/12/12 02:29:55;;;;;;;;;;;;;;;;;;5067430;28;20328;-55
2022/12/12 02:32:21;;;;;;;;;;;;;;;;;;5065436;28;20009;-56
2022/12/12 02:34:48;;;;;;;;;;;;;;;;;;5055011;28;19925;-54
2022/12/12 02:37:14;;;;;;;;;;;;;;;;;;5048714;28;20366;-55
2022/12/12 02:39:40;;;;;;;;;;;;;;;;;;5048304;28;20455;-56
2022/12/12 02:42:06;;;;;;;;;;;;;;;;;;5048342;28;19955;-56
2022/12/12 02:44:32;;;;;;;;;;;;;;;;;;5060916;28;19924;-56
2022/12/12 02:46:58;;;;;;;;;;;;;;;;;;5066852;28;19924;-56
2022/12/12 02:49:24;;;;;;;;;;;;;;;;;;5067333;28;20340;-54
2022/12/12 02:51:50;;;;;;;;;;;;;;;;;;5066703;28;19925;-54
2022/12/12 02:54:16;;;;;;;;;;;;;;;;;;5054729;28;19943;-56
2022/12/12 02:56:42;;;;;;;;;;;;;;;;;;5049287;28;19924;-55
2022/12/12 02:59:08;;;;;;;;;;;;;;;;;;5048165;28;19943;-55
2022/12/12 03:01:34;;;;;;;;;;;;;;;;;;5048142;28;19924;-56
2022/12/12 03:09:29;;;;;;;;;;;;;;;;;;5066734;28;19925;-52
2022/12/12 03:11:55;;;;;;;;;;;;;;;;;;5067045;28;20381;-56
2022/12/12 03:14:21;;;;;;;;;;;;;;;;;;5049059;28;19925;-56
2022/12/12 03:16:47;;;;;;;;;;;;;;;;;;5047244;28;19978;-56
2022/12/12 03:19:13;;;;;;;;;;;;;;;;;;5047374;28;19994;-56
2022/12/12 03:21:39;;;;;;;;;;;;;;;;;;5030152;28;20374;-56
2022/12/12 03:24:05;;;;;;;;;;;;;;;;;;5065550;28;19928;-55
2022/12/12 03:26:31;;;;;;;;;;;;;;;;;;5065919;28;19925;-54
2022/12/12 03:28:57;;;;;;;;;;;;;;;;;;5066222;28;19975;-56
2022/12/12 03:31:23;;;;;;;;;;;;;;;;;;5066730;28;20448;-54
2022/12/12 03:33:49;;;;;;;;;;;;;;;;;;5046958;28;20008;-56
2022/12/12 03:36:15;;;;;;;;;;;;;;;;;;5064871;28;20015;-55
2022/12/12 03:38:41;;;;;;;;;;;;;;;;;;5065654;28;19924;-56
2022/12/12 03:41:07;;;;;;;;;;;;;;;;;;5065640;28;19931;-55
2022/12/12 03:43:33;;;;;;;;;;;;;;;;;;5047596;28;20357;-56
2022/12/12 03:45:59;;;;;;;;;;;;;;;;;;5047817;28;19932;-56
2022/12/12 03:48:25;;;;;;;;;;;;;;;;;;5047190;28;19924;-56
2022/12/12 03:50:51;;;;;;;;;;;;;;;;;;5047102;28;19932;-55
2022/12/12 03:53:17;;;;;;;;;;;;;;;;;;5066269;28;20414;-56
2022/12/12 03:55:43;;;;;;;;;;;;;;;;;;5065695;28;19928;-55
2022/12/12 03:58:09;;;;;;;;;;;;;;;;;;5065552;28;20009;-56
2022/12/12 04:00:36;;;;;;;;;;;;;;;;;;5064965;28;20593;-56
2022/12/12 04:03:02;;;;;;;;;;;;;;;;;;5028822;28;20259;-56
2022/12/12 04:05:28;;;;;;;;;;;;;;;;;;5047041;28;20580;-56
2022/12/12 04:07:54;;;;;;;;;;;;;;;;;;5047209;28;19932;-56
2022/12/12 04:13:04;;;;;;;;;;;;;;;;;;5065260;28;19924;-56
2022/12/12 04:15:30;;;;;;;;;;;;;;;;;;5065190;28;19963;-55
2022/12/12 04:17:56;;;;;;;;;;;;;;;;;;5052271;28;20018;-56
2022/12/12 04:23:14;;;;;;;;;;;;;;;;;;5028141;28;19987;-56
2022/12/12 04:26:37;;;;;;;;;;;;;;;;;;5046782;28;19925;-56
2022/12/12 04:28:26;;;;;;;;;;;;;;;;;;5062506;28;20433;-54
2022/12/12 04:30:52;;;;;;;;;;;;;;;;;;5065088;28;20019;-56
2022/12/12 04:33:18;;;;;;;;;;;;;;;;;;5064451;28;19985;-54
2022/12/12 04:35:44;;;;;;;;;;;;;;;;;;5065139;28;19924;-54
2022/12/12 04:38:10;;;;;;;;;;;;;;;;;;5046389;28;19925;-51
2022/12/12 04:40:36;;;;;;;;;;;;;;;;;;5048270;28;19929;-56
2022/12/12 04:43:02;;;;;;;;;;;;;;;;;;5065183;28;19969;-55
2022/12/12 04:45:28;;;;;;;;;;;;;;;;;;5047558;28;19931;-56
2022/12/12 04:47:54;;;;;;;;;;;;;;;;;;5046348;28;20397;-56
2022/12/12 04:50:20;;;;;;;;;;;;;;;;;;5046244;28;19933;-56
2022/12/12 04:52:46;;;;;;;;;;;;;;;;;;5046488;28;19936;-56
2022/12/12 04:55:12;;;;;;;;;;;;;;;;;;5046435;28;19948;-56
2022/12/12 04:57:38;;;;;;;;;;;;;;;;;;5064393;28;20400;-56
2022/12/12 05:00:04;;;;;;;;;;;;;;;;;;5065104;28;19933;-56
2022/12/12 05:02:30;;;;;;;;;;;;;;;;;;5064028;28;19925;-55
2022/12/12 05:04:56;;;;;;;;;;;;;;;;;;5064870;28;20377;-56
2022/12/12 05:07:22;;;;;;;;;;;;;;;;;;5061284;28;19970;-56
2022/12/12 05:09:48;;;;;;;;;;;;;;;;;;5064528;28;19971;-56
2022/12/12 05:12:15;;;;;;;;;;;;;;;;;;5065184;28;20321;-56
2022/12/12 05:14:41;;;;;;;;;;;;;;;;;;5063801;28;19924;-55
2022/12/12 05:17:07;;;;;;;;;;;;;;;;;;5060580;28;20336;-52
2022/12/12 05:19:33;;;;;;;;;;;;;;;;;;5064257;28;20397;-56
2022/12/12 05:21:59;;;;;;;;;;;;;;;;;;5065173;28;20691;-57
2022/12/12 05:24:30;;;;;;;;;;;;;;;;;;5064846;28;20313;-58
2022/12/12 05:26:56;;;;;;;;;;;;;;;;;;5060979;28;19936;-58
2022/12/12 05:29:22;;;;;;;;;;;;;;;;;;5064686;28;19927;-58
2022/12/12 05:31:48;;;;;;;;;;;;;;;;;;5063555;28;19933;-58
2022/12/12 05:34:14;;;;;;;;;;;;;;;;;;5066085;28;19943;-57
2022/12/12 05:36:40;;;;;;;;;;;;;;;;;;5051705;28;20394;-58
2022/12/12 05:39:06;;;;;;;;;;;;;;;;;;5049862;28;20011;-58
2022/12/12 05:41:32;;;;;;;;;;;;;;;;;;5049282;28;20007;-55
2022/12/12 05:43:58;;;;;;;;;;;;;;;;;;5050254;28;19978;-58
2022/12/12 05:46:24;;;;;;;;;;;;;;;;;;5065670;28;19928;-59
2022/12/12 05:48:50;;;;;;;;;;;;;;;;;;5068690;28;19986;-58
2022/12/12 05:51:16;;;;;;;;;;;;;;;;;;5053964;28;20417;-58
2022/12/12 05:53:43;;;;;;;;;;;;;;;;;;5030896;28;19932;-56
2022/12/12 05:56:10;;;;;;;;;;;;;;;;;;5048594;28;19948;-57
2022/12/12 05:58:36;;;;;;;;;;;;;;;;;;5067822;28;20373;-58
2022/12/12 06:01:02;;;;;;;;;;;;;;;;;;5060332;28;19925;-58
2022/12/12 06:03:28;;;;;;;;;;;;;;;;;;5049394;28;19932;-56
2022/12/12 06:05:54;;;;;;;;;;;;;;;;;;5066424;28;20294;-56
2022/12/12 06:08:20;;;;;;;;;;;;;;;;;;5067875;28;19928;-56
2022/12/12 06:10:46;;;;;;;;;;;;;;;;;;5064581;28;20019;-55
2022/12/12 06:13:12;;;;;;;;;;;;;;;;;;5048852;28;19925;-56
2022/12/12 06:15:38;;;;;;;;;;;;;;;;;;5065943;28;19931;-56
2022/12/12 06:18:04;;;;;;;;;;;;;;;;;;5066445;28;19940;-56
2022/12/12 06:20:31;;;;;;;;;;;;;;;;;;5060187;28;20066;-56
2022/12/12 06:22:57;;;;;;;;;;;;;;;;;;5059517;28;19921;-54
2022/12/12 06:25:23;;;;;;;;;;;;;;;;;;5060371;28;19935;-56
2022/12/12 06:27:49;;;;;;;;;;;;;;;;;;5058092;28;20465;-56
2022/12/12 06:30:15;;;;;;;;;;;;;;;;;;5058777;28;20413;-55
2022/12/12 06:32:41;;;;;;;;;;;;;;;;;;5054973;28;19924;-55
2022/12/12 06:35:07;;;;;;;;;;;;;;;;;;5034079;28;19928;-56
2022/12/12 06:37:33;;;;;;;;;;;;;;;;;;5053142;28;20350;-56
2022/12/12 06:39:59;;;;;;;;;;;;;;;;;;5053594;28;19925;-54
2022/12/12 06:42:25;;;;;;;;;;;;;;;;;;5049451;28;19967;-55
2022/12/12 06:44:51;;;;;;;;;;;;;;;;;;5052218;28;19932;-54
2022/12/12 06:47:17;;;;;;;;;;;;;;;;;;5051018;28;19932;-56
2022/12/12 06:49:43;;;;;;;;;;;;;;;;;;5048181;28;20445;-52
2022/12/12 06:52:09;;;;;;;;;;;;;;;;;;5053538;28;19978;-56
2022/12/12 06:54:35;;;;;;;;;;;;;;;;;;5062919;28;20454;-56
2022/12/12 06:57:01;;;;;;;;;;;;;;;;;;5062095;28;20404;-55
2022/12/12 06:59:29;;;;;;;;;;;;;;;;;;5067378;28;19960;-56
2022/12/12 07:01:55;;;;;;;;;;;;;;;;;;5066678;28;20566;-56
2022/12/12 07:04:21;;;;;;;;;;;;;;;;;;5065776;28;19931;-56
2022/12/12 07:06:47;;;;;;;;;;;;;;;;;;5055938;28;19931;-56
2022/12/12 07:09:13;;;;;;;;;;;;;;;;;;5053196;28;19931;-56
2022/12/12 07:11:39;;;;;;;;;;;;;;;;;;5066166;28;20381;-57
2022/12/12 07:14:06;;;;;;;;;;;;;;;;;;5066990;28;19925;-56
2022/12/12 07:16:32;;;;;;;;;;;;;;;;;;5063867;28;19925;-56
2022/12/12 07:18:58;;;;;;;;;;;;;;;;;;5048550;28;19924;-56
2022/12/12 07:21:24;;;;;;;;;;;;;;;;;;5048082;28;20034;-53
2022/12/12 07:23:50;;;;;;;;;;;;;;;;;;5047999;28;19924;-56
2022/12/12 07:26:16;;;;;;;;;;;;;;;;;;5047800;28;20027;-54
2022/12/12 07:28:42;;;;;;;;;;;;;;;;;;5029863;28;19943;-56
2022/12/12 07:31:08;;;;;;;;;;;;;;;;;;5047003;28;20496;-55
2022/12/12 07:33:34;;;;;;;;;;;;;;;;;;5048291;28;19996;-55
2022/12/12 07:36:00;;;;;;;;;;;;;;;;;;5047568;28;19924;-55
2022/12/12 07:38:26;;;;;;;;;;;;;;;;;;5048160;28;19990;-56
2022/12/12 07:40:52;;;;;;;;;;;;;;;;;;5047520;28;19925;-56
2022/12/12 07:43:18;;;;;;;;;;;;;;;;;;5047733;28;19925;-54
2022/12/12 07:45:44;;;;;;;;;;;;;;;;;;5047634;28;19929;-55
2022/12/12 07:48:10;;;;;;;;;;;;;;;;;;5047264;28;20010;-56
2022/12/12 07:50:36;;;;;;;;;;;;;;;;;;5046758;28;20054;-56
2022/12/12 07:53:02;;;;;;;;;;;;;;;;;;5047887;28;20024;-56
2022/12/12 07:55:28;;;;;;;;;;;;;;;;;;5047584;28;20595;-54
2022/12/12 07:57:54;;;;;;;;;;;;;;;;;;5047768;28;20362;-56
2022/12/12 08:00:20;;;;;;;;;;;;;;;;;;5047653;28;19978;-57
2022/12/12 08:02:46;;;;;;;;;;;;;;;;;;5046024;28;20308;-53
2022/12/12 08:05:12;;;;;;;;;;;;;;;;;;5046948;28;20396;-56
2022/12/12 08:07:38;;;;;;;;;;;;;;;;;;5047181;28;19931;-55
2022/12/12 08:10:04;;;;;;;;;;;;;;;;;;5047301;28;19925;-57
2022/12/12 08:12:30;;;;;;;;;;;;;;;;;;5046754;28;20297;-56
2022/12/12 08:14:56;;;;;;;;;;;;;;;;;;5047398;28;19935;-56
2022/12/12 08:17:22;;;;;;;;;;;;;;;;;;5046141;28;19924;-56
2022/12/12 08:19:48;;;;;;;;;;;;;;;;;;5046727;28;20257;-55
2022/12/12 08:22:14;;;;;;;;;;;;;;;;;;5047126;28;19947;-56
2022/12/12 08:24:40;;;;;;;;;;;;;;;;;;5046901;28;19930;-56
2022/12/12 08:27:06;;;;;;;;;;;;;;;;;;5046944;28;19933;-57
2022/12/12 08:29:32;;;;;;;;;;;;;;;;;;5046820;28;19978;-55
2022/12/12 08:31:58;;;;;;;;;;;;;;;;;;5046354;28;20011;-56
2022/12/12 08:34:25;;;;;;;;;;;;;;;;;;5046979;28;20445;-55
2022/12/12 08:36:51;;;;;;;;;;;;;;;;;;5046608;28;19932;-56
2022/12/12 08:39:17;;;;;;;;;;;;;;;;;;5046633;28;19931;-56
2022/12/12 08:41:43;;;;;;;;;;;;;;;;;;5046172;28;19925;-53
2022/12/12 08:44:09;;;;;;;;;;;;;;;;;;5046889;28;19983;-56
2022/12/12 08:46:35;;;;;;;;;;;;;;;;;;5045618;28;19933;-54
2022/12/12 08:49:01;;;;;;;;;;;;;;;;;;5046438;28;20301;-55
2022/12/12 08:51:27;;;;;;;;;;;;;;;;;;5046623;28;19951;-56
2022/12/12 08:53:53;;;;;;;;;;;;;;;;;;5046113;28;19925;-56
2022/12/12 08:56:19;;;;;;;;;;;;;;;;;;5028584;28;19929;-56
2022/12/12 08:58:45;;;;;;;;;;;;;;;;;;5046394;28;19931;-56
2022/12/12 09:01:11;;;;;;;;;;;;;;;;;;5045289;28;19925;-55
2022/12/12 09:03:37;;;;;;;;;;;;;;;;;;5046273;28;19921;-51
2022/12/12 09:06:03;;;;;;;;;;;;;;;;;;5046246;28;19929;-56
2022/12/12 09:08:29;;;;;;;;;;;;;;;;;;5045562;28;20340;-55
2022/12/12 09:10:55;;;;;;;;;;;;;;;;;;5046808;28;19925;-55
2022/12/12 09:13:21;;;;;;;;;;;;;;;;;;5046247;28;19971;-54
2022/12/12 09:15:47;;;;;;;;;;;;;;;;;;5044636;28;20086;-56
2022/12/12 09:18:13;;;;;;;;;;;;;;;;;;5045925;28;20618;-56
2022/12/12 09:20:39;;;;;;;;;;;;;;;;;;5045801;28;19932;-55
2022/12/12 09:23:05;;;;;;;;;;;;;;;;;;5045964;28;19951;-56
2022/12/12 09:25:31;;;;;;;;;;;;;;;;;;5046073;28;20401;-57
2022/12/12 09:27:57;;;;;;;;;;;;;;;;;;5046796;28;19925;-56
2022/12/12 09:30:24;;;;;;;;;;;;;;;;;;5045736;28;20031;-52
2022/12/12 09:32:50;;;;;;;;;;;;;;;;;;5045356;28;19931;-53
2022/12/12 09:35:16;;;;;;;;;;;;;;;;;;5046429;28;19925;-53
2022/12/12 09:37:42;;;;;;;;;;;;;;;;;;5045906;28;19925;-56
2022/12/12 09:40:08;;;;;;;;;;;;;;;;;;5045722;28;19931;-55
2022/12/12 09:42:34;;;;;;;;;;;;;;;;;;5046061;28;20293;-56
2022/12/12 09:45:00;;;;;;;;;;;;;;;;;;5045345;28;20386;-56
2022/12/12 09:47:26;;;;;;;;;;;;;;;;;;5046049;28;20023;-56
2022/12/12 09:49:52;;;;;;;;;;;;;;;;;;5046136;28;20034;-56
2022/12/12 09:52:19;;;;;;;;;;;;;;;;;;5046169;28;19960;-53
2022/12/12 09:54:45;;;;;;;;;;;;;;;;;;5045906;28;19968;-57
2022/12/12 09:57:11;;;;;;;;;;;;;;;;;;5045894;28;20412;-56
2022/12/12 09:59:37;;;;;;;;;;;;;;;;;;5045218;28;19929;-55
2022/12/12 10:02:04;;;;;;;;;;;;;;;;;;5027395;28;20325;-56
2022/12/12 10:04:30;;;;;;;;;;;;;;;;;;5045403;28;19975;-56
2022/12/12 10:06:56;;;;;;;;;;;;;;;;;;5045816;28;20609;-57
2022/12/12 10:09:22;;;;;;;;;;;;;;;;;;5045725;28;19932;-56
2022/12/12 10:11:49;;;;;;;;;;;;;;;;;;5046051;28;19925;-54
2022/12/12 10:14:15;;;;;;;;;;;;;;;;;;5045119;28;19925;-56
2022/12/12 10:16:41;;;;;;;;;;;;;;;;;;5044833;28;19924;-56
2022/12/12 10:19:07;;;;;;;;;;;;;;;;;;5045568;28;20546;-56
2022/12/12 10:21:33;;;;;;;;;;;;;;;;;;5047584;28;19964;-56
2022/12/12 10:23:59;;;;;;;;;;;;;;;;;;5049234;28;19932;-56
2022/12/12 10:26:26;;;;;;;;;;;;;;;;;;5049848;28;20020;-56
2022/12/12 10:28:52;;;;;;;;;;;;;;;;;;5048557;28;19932;-56
2022/12/12 10:31:18;;;;;;;;;;;;;;;;;;5048064;28;19925;-56
2022/12/12 10:33:44;;;;;;;;;;;;;;;;;;5048803;28;19952;-57
2022/12/12 10:36:10;;;;;;;;;;;;;;;;;;5049102;28;20565;-56
2022/12/12 10:38:36;;;;;;;;;;;;;;;;;;5049085;28;19925;-55
2022/12/12 10:41:02;;;;;;;;;;;;;;;;;;5048839;28;19932;-53
2022/12/12 10:43:28;;;;;;;;;;;;;;;;;;5048508;28;19978;-56
2022/12/12 10:45:54;;;;;;;;;;;;;;;;;;5048529;28;19929;-56
2022/12/12 10:48:20;;;;;;;;;;;;;;;;;;5048805;28;20275;-56
2022/12/12 10:50:46;;;;;;;;;;;;;;;;;;5048144;28;19925;-50
2022/12/12 10:53:12;;;;;;;;;;;;;;;;;;5048869;28;19932;-57
2022/12/12 10:55:38;;;;;;;;;;;;;;;;;;5048266;28;19925;-50
2022/12/12 10:58:04;;;;;;;;;;;;;;;;;;5048351;28;20398;-57
2022/12/12 11:00:30;;;;;;;;;;;;;;;;;;5047983;28;19925;-56
2022/12/12 11:02:57;;;;;;;;;;;;;;;;;;5048943;28;19932;-56
2022/12/12 11:05:23;;;;;;;;;;;;;;;;;;5048343;28;19925;-57
2022/12/12 11:07:49;;;;;;;;;;;;;;;;;;5048463;28;19955;-56
2022/12/12 11:10:15;;;;;;;;;;;;;;;;;;5048154;28;19929;-57
2022/12/12 11:12:41;;;;;;;;;;;;;;;;;;5047961;28;20366;-55
2022/12/12 11:15:08;;;;;;;;;;;;;;;;;;5047708;28;21207;-56
2022/12/12 11:17:34;;;;;;;;;;;;;;;;;;5047587;28;19987;-57
2022/12/12 11:20:01;;;;;;;;;;;;;;;;;;5048691;28;20386;-56
2022/12/12 11:22:27;;;;;;;;;;;;;;;;;;5048746;28;19929;-53
2022/12/12 11:24:53;;;;;;;;;;;;;;;;;;5047611;28;19925;-56
2022/12/12 11:27:19;;;;;;;;;;;;;;;;;;5048151;28;19937;-54
2022/12/12 11:29:45;;;;;;;;;;;;;;;;;;5048154;28;19984;-55
2022/12/12 11:32:11;;;;;;;;;;;;;;;;;;5046872;28;20378;-57
2022/12/12 11:34:37;;;;;;;;;;;;;;;;;;5047831;28;19955;-57
2022/12/12 11:37:03;;;;;;;;;;;;;;;;;;5048379;28;19925;-57
2022/12/12 11:39:29;;;;;;;;;;;;;;;;;;5046893;28;19948;-54
2022/12/12 11:41:55;;;;;;;;;;;;;;;;;;5048059;28;19959;-56
2022/12/12 11:44:21;;;;;;;;;;;;;;;;;;5047906;28;19979;-56
2022/12/12 11:46:47;;;;;;;;;;;;;;;;;;5046623;28;19972;-57
2022/12/12 11:49:13;;;;;;;;;;;;;;;;;;5047639;28;20393;-54
2022/12/12 11:51:39;;;;;;;;;;;;;;;;;;5046906;28;20016;-56
2022/12/12 11:54:05;;;;;;;;;;;;;;;;;;5046928;28;19928;-53
2022/12/12 11:56:31;;;;;;;;;;;;;;;;;;5047440;28;19932;-57
2022/12/12 11:58:57;;;;;;;;;;;;;;;;;;5047805;28;20289;-57
2022/12/12 12:01:23;;;;;;;;;;;;;;;;;;5044325;28;20425;-57
2022/12/12 12:03:49;;;;;;;;;;;;;;;;;;5049704;28;20278;-56
2022/12/12 12:06:15;;;;;;;;;;;;;;;;;;5054683;28;19925;-53
2022/12/12 12:08:41;;;;;;;;;;;;;;;;;;5052897;28;19952;-54
2022/12/12 12:11:07;;;;;;;;;;;;;;;;;;5041103;28;19925;-56
2022/12/12 12:13:33;;;;;;;;;;;;;;;;;;5059255;28;19928;-57
2022/12/12 12:15:59;;;;;;;;;;;;;;;;;;5061122;28;19951;-52
2022/12/12 12:18:25;;;;;;;;;;;;;;;;;;5067063;28;20605;-56
2022/12/12 12:20:51;;;;;;;;;;;;;;;;;;5066290;28;19999;-54
2022/12/12 12:23:17;;;;;;;;;;;;;;;;;;5066215;28;20007;-53
2022/12/12 12:25:43;;;;;;;;;;;;;;;;;;5066363;28;20488;-56
2022/12/12 12:28:09;;;;;;;;;;;;;;;;;;5053379;28;19925;-56
2022/12/12 12:30:35;;;;;;;;;;;;;;;;;;5046045;28;20421;-56
2022/12/12 12:33:02;;;;;;;;;;;;;;;;;;5066097;28;19924;-58
2022/12/12 12:35:29;;;;;;;;;;;;;;;;;;5066955;28;20592;-56
2022/12/12 12:37:55;;;;;;;;;;;;;;;;;;5066305;28;19928;-55
2022/12/12 12:40:21;;;;;;;;;;;;;;;;;;5066257;28;19925;-56
2022/12/12 12:42:47;;;;;;;;;;;;;;;;;;5066058;28;19932;-55
2022/12/12 12:45:13;;;;;;;;;;;;;;;;;;5065860;28;19924;-56
2022/12/12 12:47:39;;;;;;;;;;;;;;;;;;5047525;28;20436;-56
2022/12/12 12:50:05;;;;;;;;;;;;;;;;;;5046592;28;19964;-56
2022/12/12 12:52:31;;;;;;;;;;;;;;;;;;5045487;28;20010;-56
2022/12/12 12:54:57;;;;;;;;;;;;;;;;;;5046587;28;20450;-55
2022/12/12 12:57:23;;;;;;;;;;;;;;;;;;5046282;28;20542;-56
2022/12/12 12:59:49;;;;;;;;;;;;;;;;;;5046318;28;19936;-55
2022/12/12 13:02:15;;;;;;;;;;;;;;;;;;5045715;28;19951;-57
2022/12/12 13:04:41;;;;;;;;;;;;;;;;;;5045847;28;20007;-56
2022/12/12 13:07:07;;;;;;;;;;;;;;;;;;5045679;28;19928;-55
2022/12/12 13:09:33;;;;;;;;;;;;;;;;;;5046008;28;19920;-55
2022/12/12 13:11:59;;;;;;;;;;;;;;;;;;5028453;28;19932;-54
2022/12/12 13:14:25;;;;;;;;;;;;;;;;;;5046456;28;19921;-56
2022/12/12 13:16:51;;;;;;;;;;;;;;;;;;5045446;28;20265;-56
2022/12/12 13:19:17;;;;;;;;;;;;;;;;;;5046213;28;19932;-55
2022/12/12 13:21:44;;;;;;;;;;;;;;;;;;5045804;28;19960;-56
2022/12/12 13:24:11;;;;;;;;;;;;;;;;;;5046446;28;19951;-56
2022/12/12 13:26:37;;;;;;;;;;;;;;;;;;5045960;28;19932;-56
2022/12/12 13:29:03;;;;;;;;;;;;;;;;;;5046305;28;19932;-56
2022/12/12 13:31:29;;;;;;;;;;;;;;;;;;5045544;28;19924;-54
2022/12/12 13:33:55;;;;;;;;;;;;;;;;;;5046627;28;19932;-54
2022/12/12 13:36:21;;;;;;;;;;;;;;;;;;5045783;28;19924;-56
2022/12/12 13:38:47;;;;;;;;;;;;;;;;;;5045888;28;20378;-56
2022/12/12 13:41:13;;;;;;;;;;;;;;;;;;5045745;28;19935;-56
2022/12/12 13:43:39;;;;;;;;;;;;;;;;;;5045552;28;19925;-56
2022/12/12 13:46:05;;;;;;;;;;;;;;;;;;5045584;28;19925;-54
2022/12/12 13:48:31;;;;;;;;;;;;;;;;;;5045841;28;20004;-56
2022/12/12 13:50:57;;;;;;;;;;;;;;;;;;5045724;28;19928;-56
2022/12/12 13:53:23;;;;;;;;;;;;;;;;;;5045405;28;20369;-56
2022/12/12 13:55:49;;;;;;;;;;;;;;;;;;5048647;28;20023;-55
2022/12/12 13:58:15;;;;;;;;;;;;;;;;;;5050130;28;19933;-55
2022/12/12 14:00:42;;;;;;;;;;;;;;;;;;5049022;28;19947;-56
2022/12/12 14:03:08;;;;;;;;;;;;;;;;;;5049676;28;19932;-54
2022/12/12 14:05:34;;;;;;;;;;;;;;;;;;5048772;28;19925;-56
2022/12/12 14:08:00;;;;;;;;;;;;;;;;;;5049682;28;19924;-56
2022/12/12 14:10:26;;;;;;;;;;;;;;;;;;5049491;28;19956;-56
2022/12/12 14:12:52;;;;;;;;;;;;;;;;;;5048932;28;20482;-56
2022/12/12 14:15:18;;;;;;;;;;;;;;;;;;5048619;28;19924;-56
2022/12/12 14:17:44;;;;;;;;;;;;;;;;;;5058559;28;19929;-56
2022/12/12 14:20:10;;;;;;;;;;;;;;;;;;5068965;28;19935;-57
2022/12/12 14:22:36;;;;;;;;;;;;;;;;;;5068973;28;20855;-57
2022/12/12 14:25:02;;;;;;;;;;;;;;;;;;5068954;28;20353;-56
2022/12/12 14:27:28;;;;;;;;;;;;;;;;;;5064306;28;20027;-56
2022/12/12 14:29:54;;;;;;;;;;;;;;;;;;5049135;28;20062;-55
2022/12/12 14:32:20;;;;;;;;;;;;;;;;;;5049109;28;20534;-56
2022/12/12 14:34:46;;;;;;;;;;;;;;;;;;5047931;28;19924;-56
2022/12/12 14:37:12;;;;;;;;;;;;;;;;;;5049132;28;19973;-56
2022/12/12 14:39:38;;;;;;;;;;;;;;;;;;5047827;28;19925;-55
2022/12/12 14:42:04;;;;;;;;;;;;;;;;;;5048806;28;20363;-56
2022/12/12 14:44:30;;;;;;;;;;;;;;;;;;5064653;28;19931;-56
2022/12/12 14:46:56;;;;;;;;;;;;;;;;;;5065066;28;19928;-55
2022/12/12 14:49:22;;;;;;;;;;;;;;;;;;5079836;28;20007;-57
2022/12/12 14:51:48;;;;;;;;;;;;;;;;;;5073785;28;20023;-57
2022/12/12 14:54:15;;;;;;;;;;;;;;;;;;5069271;28;19924;-57
2022/12/12 14:56:41;;;;;;;;;;;;;;;;;;5068048;28;20568;-57
2022/12/12 14:59:07;;;;;;;;;;;;;;;;;;5068944;28;20282;-55
2022/12/12 15:01:33;;;;;;;;;;;;;;;;;;5070873;28;20254;-56
2022/12/12 15:03:59;;;;;;;;;;;;;;;;;;5084097;28;20274;-56
2022/12/12 15:06:25;;;;;;;;;;;;;;;;;;5082955;28;20378;-57
2022/12/12 15:08:51;;;;;;;;;;;;;;;;;;5087544;28;19931;-56
2022/12/12 15:11:17;;;;;;;;;;;;;;;;;;5088672;28;19982;-57
2022/12/12 15:13:43;;;;;;;;;;;;;;;;;;5088302;28;20373;-54
2022/12/12 15:16:09;;;;;;;;;;;;;;;;;;5087526;28;20006;-57
2022/12/12 15:18:35;;;;;;;;;;;;;;;;;;5073383;28;19931;-57
2022/12/12 15:21:01;;;;;;;;;;;;;;;;;;5088409;28;19958;-57
2022/12/12 15:23:27;;;;;;;;;;;;;;;;;;5088423;28;20433;-56
2022/12/12 15:25:53;;;;;;;;;;;;;;;;;;5088320;28;19976;-57
2022/12/12 15:28:19;;;;;;;;;;;;;;;;;;5088105;28;19963;-57
2022/12/12 15:30:46;;;;;;;;;;;;;;;;;;5078803;28;19924;-57
2022/12/12 15:33:12;;;;;;;;;;;;;;;;;;5075732;28;19924;-57
2022/12/12 15:35:38;;;;;;;;;;;;;;;;;;5057271;28;19924;-56
2022/12/12 15:38:04;;;;;;;;;;;;;;;;;;5067506;28;19925;-57
2022/12/12 15:40:31;;;;;;;;;;;;;;;;;;5066887;28;19932;-57
2022/12/12 15:42:57;;;;;;;;;;;;;;;;;;5067628;28;19920;-55
2022/12/12 15:45:23;;;;;;;;;;;;;;;;;;5066194;28;19935;-57
2022/12/12 15:47:49;;;;;;;;;;;;;;;;;;5067150;28;20279;-56
2022/12/12 15:50:15;;;;;;;;;;;;;;;;;;5067287;28;20381;-57
2022/12/12 15:52:41;;;;;;;;;;;;;;;;;;5068987;28;19924;-57
2022/12/12 15:55:07;;;;;;;;;;;;;;;;;;5087648;28;19924;-57
2022/12/12 15:57:33;;;;;;;;;;;;;;;;;;5087052;28;19954;-57
2022/12/12 15:59:59;;;;;;;;;;;;;;;;;;5086377;28;20018;-55
2022/12/12 16:02:25;;;;;;;;;;;;;;;;;;5088146;28;20003;-57
2022/12/12 16:04:51;;;;;;;;;;;;;;;;;;5086755;28;19933;-54
2022/12/12 16:07:17;;;;;;;;;;;;;;;;;;5087105;28;19931;-56
2022/12/12 16:09:43;;;;;;;;;;;;;;;;;;5068375;28;20457;-55
2022/12/12 16:12:09;;;;;;;;;;;;;;;;;;5065322;28;19930;-57
2022/12/12 16:14:35;;;;;;;;;;;;;;;;;;5069992;28;19928;-56
2022/12/12 16:17:02;;;;;;;;;;;;;;;;;;5066629;28;19975;-57
2022/12/12 16:19:28;;;;;;;;;;;;;;;;;;5048514;28;19931;-58
2022/12/12 16:21:54;;;;;;;;;;;;;;;;;;5066226;28;19933;-57
2022/12/12 16:24:20;;;;;;;;;;;;;;;;;;5076598;28;20019;-58
2022/12/12 16:26:46;;;;;;;;;;;;;;;;;;5076131;28;20011;-57
2022/12/12 16:29:12;;;;;;;;;;;;;;;;;;5066306;28;19995;-58
2022/12/12 16:31:38;;;;;;;;;;;;;;;;;;5065351;28;20799;-57
2022/12/12 16:34:04;;;;;;;;;;;;;;;;;;5048692;28;19936;-59
2022/12/12 16:36:30;;;;;;;;;;;;;;;;;;5082665;28;19977;-58
2022/12/12 16:38:56;;;;;;;;;;;;;;;;;;5077909;28;19932;-58
2022/12/12 16:41:22;;;;;;;;;;;;;;;;;;5066350;28;19999;-56
2022/12/12 16:43:48;;;;;;;;;;;;;;;;;;5064976;28;20384;-56
2022/12/12 16:46:14;;;;;;;;;;;;;;;;;;5071933;28;19924;-56
2022/12/12 16:48:40;;;;;;;;;;;;;;;;;;5076400;28;19955;-54